FSP weather

St Pierre Airport
Saint-Pierre, Saint-Pierre, Saint Pierre and Miquelon

Public forecast

Using degrees Celsius for public forecast. Weather courtesy of forecast.io.

Current aviation weather report (METAR) for St Pierre Airport

Retrieved 2020/08/05 16:00 UTC (43 minutes ago):

LFVP 051600Z 14004KT 110V200 9999 BKN013 17/13 Q1022

Aviation forecast (TAF) for St Pierre Airport

Retrieved 2020/08/05 15:00 UTC (2 hours ago):

TAF LFVP 051400Z 0515/0524 15005KT 9999 BKN020 BECMG 0518/0520 18012KT BECMG 0521/0523 SCT005 OVC010